createdAt,value
2022-10-05T00:00:45.717Z,13.38
2022-10-05T00:01:52.786Z,10.32
2022-10-05T00:02:56.628Z,12.65
2022-10-05T00:04:06.244Z,14.77
2022-10-05T00:05:22.447Z,12.75
2022-10-05T00:06:27.063Z,8.77
2022-10-05T00:07:31.111Z,11.20
2022-10-05T00:08:35.051Z,9.00
2022-10-05T00:09:37.522Z,11.63
2022-10-05T00:10:41.064Z,11.85
2022-10-05T00:11:43.995Z,11.70
2022-10-05T00:12:46.556Z,9.63
2022-10-05T00:13:49.076Z,8.02
2022-10-05T00:14:53.480Z,9.15
2022-10-05T00:16:00.472Z,14.52
2022-10-05T00:17:05.053Z,16.10
2022-10-05T00:18:15.190Z,12.15
2022-10-05T00:19:23.487Z,9.30
2022-10-05T00:20:27.460Z,12.63
2022-10-05T00:21:30.309Z,13.15
2022-10-05T00:22:34.672Z,11.63
2022-10-05T00:23:36.260Z,9.73
2022-10-05T00:24:38.797Z,14.77
2022-10-05T00:25:40.305Z,13.02
2022-10-05T00:26:42.898Z,11.88
2022-10-05T00:27:48.585Z,11.95
2022-10-05T00:28:52.035Z,12.25
2022-10-05T00:29:59.896Z,14.73
2022-10-05T00:31:02.404Z,11.48
2022-10-05T00:32:04.132Z,16.00
2022-10-05T00:33:06.786Z,10.68
2022-10-05T00:34:08.299Z,12.07
2022-10-05T00:35:11.907Z,11.25
2022-10-05T00:36:14.250Z,15.73
2022-10-05T00:37:18.153Z,15.77
2022-10-05T00:38:19.859Z,12.85
2022-10-05T00:39:22.327Z,12.25
2022-10-05T00:40:36.631Z,12.13
2022-10-05T00:41:50.882Z,13.68
2022-10-05T00:43:04.735Z,10.55
2022-10-05T00:44:27.735Z,8.85
2022-10-05T00:45:33.359Z,10.30
2022-10-05T00:46:47.237Z,14.02
2022-10-05T00:48:05.272Z,11.40
2022-10-05T00:49:19.688Z,18.73
2022-10-05T00:50:55.124Z,10.80
2022-10-05T00:52:07.524Z,14.32
2022-10-05T00:53:24.054Z,13.55
2022-10-05T00:54:35.597Z,13.00
2022-10-05T00:55:50.143Z,15.48
2022-10-05T00:57:21.264Z,14.45
2022-10-05T00:58:33.034Z,16.90
2022-10-05T00:59:46.413Z,11.20
2022-10-05T01:01:00.296Z,17.98
2022-10-05T01:02:08.890Z,18.83
2022-10-05T01:03:18.542Z,13.48
2022-10-05T01:04:26.414Z,18.90
2022-10-05T01:05:46.514Z,13.20
2022-10-05T01:07:02.427Z,10.95
2022-10-05T01:08:16.344Z,13.32
2022-10-05T01:09:31.330Z,21.35
2022-10-05T01:10:44.199Z,16.52
2022-10-05T01:11:55.059Z,14.50
2022-10-05T01:13:06.681Z,19.38
2022-10-05T01:14:15.283Z,13.73
2022-10-05T01:15:27.878Z,15.80
2022-10-05T01:16:35.630Z,14.18
2022-10-05T01:17:45.677Z,14.18
2022-10-05T01:18:54.205Z,13.95
2022-10-05T01:20:12.674Z,12.45
2022-10-05T01:21:19.442Z,16.77
2022-10-05T01:22:37.380Z,15.05
2022-10-05T01:24:17.407Z,14.60
2022-10-05T01:25:27.844Z,14.82
2022-10-05T01:26:55.747Z,16.15
2022-10-05T01:28:04.806Z,13.05
2022-10-05T01:29:11.075Z,15.95
2022-10-05T01:30:16.763Z,19.55
2022-10-05T01:31:25.463Z,13.27
2022-10-05T01:32:35.335Z,17.92
2022-10-05T01:33:43.824Z,11.05
2022-10-05T01:34:55.002Z,19.42
2022-10-05T01:36:02.352Z,13.43
2022-10-05T01:37:12.899Z,15.63
2022-10-05T01:38:24.296Z,14.65
2022-10-05T01:39:35.954Z,12.85
2022-10-05T01:40:45.268Z,14.40
2022-10-05T01:41:53.732Z,23.25
2022-10-05T01:43:07.397Z,13.55
2022-10-05T01:44:14.079Z,16.48
2022-10-05T01:45:24.081Z,15.63
2022-10-05T01:46:34.614Z,16.70
2022-10-05T01:47:43.376Z,16.30
2022-10-05T01:48:57.935Z,17.92
2022-10-05T01:50:02.461Z,17.40
2022-10-05T01:51:12.596Z,16.52
2022-10-05T01:52:29.395Z,16.73
2022-10-05T01:53:45.472Z,14.90
2022-10-05T01:54:58.854Z,14.10
2022-10-05T01:56:10.779Z,18.65
2022-10-05T01:57:24.256Z,14.63
2022-10-05T01:58:39.056Z,17.90
2022-10-05T01:59:52.303Z,13.95
2022-10-05T02:01:02.516Z,19.48
2022-10-05T02:02:07.855Z,14.75
2022-10-05T02:03:18.229Z,18.00
2022-10-05T02:04:59.942Z,21.83
2022-10-05T02:05:57.173Z,14.20
2022-10-05T02:07:01.895Z,16.40
2022-10-05T02:08:08.351Z,23.25
2022-10-05T02:09:16.394Z,17.52
2022-10-05T02:10:24.831Z,13.85
2022-10-05T02:11:26.496Z,18.80
2022-10-05T02:12:33.719Z,15.15
2022-10-05T02:13:41.590Z,18.35
2022-10-05T02:14:48.321Z,20.85
2022-10-05T02:15:54.865Z,20.48
2022-10-05T02:17:03.060Z,16.63
2022-10-05T02:18:13.383Z,16.35
2022-10-05T02:19:21.896Z,18.65
2022-10-05T02:20:27.663Z,15.98
2022-10-05T02:21:32.098Z,15.93
2022-10-05T02:22:36.905Z,15.50
2022-10-05T02:23:42.407Z,18.42
2022-10-05T02:24:47.927Z,16.20
2022-10-05T02:25:53.019Z,15.35
2022-10-05T02:26:56.490Z,15.68
2022-10-05T02:28:05.463Z,21.45
2022-10-05T02:29:12.565Z,14.82
2022-10-05T02:30:18.135Z,15.77
2022-10-05T02:31:26.665Z,14.73
2022-10-05T02:32:35.091Z,17.73
2022-10-05T02:33:38.324Z,13.20
2022-10-05T02:34:41.398Z,15.27
2022-10-05T02:35:44.307Z,16.52
2022-10-05T02:36:53.018Z,19.00
2022-10-05T02:38:09.961Z,14.25
2022-10-05T02:39:20.852Z,17.73
2022-10-05T02:40:33.143Z,25.10
2022-10-05T02:41:47.169Z,17.17
2022-10-05T02:42:59.159Z,15.52
2022-10-05T02:44:12.041Z,14.50
2022-10-05T02:45:26.178Z,23.48
2022-10-05T02:46:36.729Z,17.63
2022-10-05T02:47:46.160Z,17.38
2022-10-05T02:48:58.314Z,17.90
2022-10-05T02:50:07.032Z,15.27
2022-10-05T02:51:21.208Z,14.88
2022-10-05T02:52:29.112Z,14.80
2022-10-05T02:53:38.722Z,13.75
2022-10-05T02:54:49.664Z,20.02
2022-10-05T02:56:01.808Z,13.98
2022-10-05T02:57:10.351Z,14.40
2022-10-05T02:58:15.934Z,14.52
2022-10-05T02:59:24.906Z,15.20
2022-10-05T03:00:32.954Z,18.83
2022-10-05T03:01:41.158Z,13.70
2022-10-05T03:02:49.816Z,16.02
2022-10-05T03:04:00.189Z,17.23
2022-10-05T03:05:16.040Z,13.77
2022-10-05T03:06:23.078Z,12.32
2022-10-05T03:07:30.697Z,14.45
2022-10-05T03:08:38.809Z,12.57
2022-10-05T03:09:49.620Z,13.60
2022-10-05T03:11:00.050Z,15.32
2022-10-05T03:12:12.081Z,17.88
2022-10-05T03:13:26.981Z,11.30
2022-10-05T03:14:38.097Z,14.60
2022-10-05T03:16:03.870Z,13.45
2022-10-05T03:17:13.266Z,19.50
2022-10-05T03:18:30.484Z,16.77
2022-10-05T03:19:48.712Z,14.55
2022-10-05T03:21:00.890Z,18.05
2022-10-05T03:22:12.045Z,15.15
2022-10-05T03:23:27.981Z,11.73
2022-10-05T03:24:41.636Z,12.48
2022-10-05T03:26:01.481Z,14.82
2022-10-05T03:27:14.388Z,18.65
2022-10-05T03:28:23.868Z,19.58
2022-10-05T03:29:34.218Z,13.98
2022-10-05T03:30:42.964Z,15.23
2022-10-05T03:31:51.334Z,15.10
2022-10-05T03:33:03.092Z,15.00
2022-10-05T03:34:09.048Z,15.75
2022-10-05T03:35:16.004Z,13.25
2022-10-05T03:36:28.037Z,13.55
2022-10-05T03:37:34.759Z,14.90
2022-10-05T03:38:48.645Z,15.98
2022-10-05T03:39:57.000Z,12.82
2022-10-05T03:41:10.573Z,11.52
2022-10-05T03:42:22.649Z,12.68
2022-10-05T03:43:50.639Z,20.60
2022-10-05T03:44:58.454Z,12.55
2022-10-05T03:46:08.525Z,13.93
2022-10-05T03:47:21.075Z,11.40
2022-10-05T03:48:28.983Z,13.73
2022-10-05T03:49:45.005Z,10.73
2022-10-05T03:51:02.415Z,10.38
2022-10-05T03:52:11.322Z,14.98
2022-10-05T03:53:19.227Z,11.57
2022-10-05T03:54:25.536Z,11.60
2022-10-05T03:55:33.685Z,14.20
2022-10-05T03:56:41.242Z,12.05
2022-10-05T03:57:43.999Z,13.45
2022-10-05T03:58:55.473Z,17.13
2022-10-05T04:00:01.130Z,13.05
2022-10-05T04:01:11.856Z,12.80
2022-10-05T04:02:22.791Z,13.80
2022-10-05T04:03:33.746Z,10.82
2022-10-05T04:04:40.725Z,13.98
2022-10-05T04:05:50.133Z,16.98
2022-10-05T04:06:54.667Z,12.05
2022-10-05T04:08:03.519Z,14.52
2022-10-05T04:09:11.669Z,12.48
2022-10-05T04:10:20.322Z,17.08
2022-10-05T04:11:27.643Z,22.77
2022-10-05T04:12:36.847Z,13.95
2022-10-05T04:13:43.283Z,13.95
2022-10-05T04:14:49.784Z,16.00
2022-10-05T04:15:59.654Z,13.35
2022-10-05T04:17:06.652Z,15.68
2022-10-05T04:18:21.438Z,12.07
2022-10-05T04:19:27.501Z,13.85
2022-10-05T04:20:35.592Z,13.32
2022-10-05T04:21:46.633Z,11.93
2022-10-05T04:22:59.407Z,12.07
2022-10-05T04:24:07.966Z,14.10
2022-10-05T04:25:16.825Z,14.10
2022-10-05T04:26:25.910Z,18.83
2022-10-05T04:27:33.365Z,13.30
2022-10-05T04:28:45.621Z,12.07
2022-10-05T04:29:53.554Z,20.52
2022-10-05T04:30:56.122Z,17.83
2022-10-05T04:32:12.326Z,13.68
2022-10-05T04:33:16.297Z,11.05
2022-10-05T04:34:38.307Z,13.02
2022-10-05T04:35:53.679Z,15.85
2022-10-05T04:37:01.257Z,17.55
2022-10-05T04:38:17.677Z,24.83
2022-10-05T04:39:28.337Z,13.38
2022-10-05T04:40:45.319Z,18.75
2022-10-05T04:42:00.453Z,14.95
2022-10-05T04:43:09.961Z,12.52
2022-10-05T04:44:31.646Z,14.65
2022-10-05T04:45:46.478Z,16.17
2022-10-05T04:47:04.092Z,13.30
2022-10-05T04:48:25.681Z,13.27
2022-10-05T04:49:50.445Z,12.85
2022-10-05T04:51:05.078Z,12.07
2022-10-05T04:52:14.988Z,15.63
2022-10-05T04:53:26.624Z,11.52
2022-10-05T04:54:44.294Z,10.10
2022-10-05T04:55:54.642Z,11.75
2022-10-05T04:56:59.899Z,15.05
2022-10-05T04:58:11.103Z,12.77
2022-10-05T04:59:56.102Z,13.05
2022-10-05T05:01:09.689Z,12.38
2022-10-05T05:02:20.815Z,14.20
2022-10-05T05:03:50.638Z,11.75
2022-10-05T05:05:12.517Z,14.15
2022-10-05T05:06:30.557Z,18.15
2022-10-05T05:07:44.868Z,21.20
2022-10-05T05:09:04.558Z,13.38
2022-10-05T05:10:29.246Z,24.10
2022-10-05T05:11:42.631Z,13.43
2022-10-05T05:12:56.052Z,14.30
2022-10-05T05:14:18.515Z,12.05
2022-10-05T05:15:34.403Z,12.23
2022-10-05T05:16:40.298Z,13.85
2022-10-05T05:17:56.854Z,15.38
2022-10-05T05:19:16.814Z,11.77
2022-10-05T05:20:23.332Z,12.68
2022-10-05T05:21:37.927Z,21.45
2022-10-05T05:22:47.611Z,16.08
2022-10-05T05:23:55.804Z,13.15
2022-10-05T05:25:18.613Z,10.40
2022-10-05T05:26:28.595Z,17.02
2022-10-05T05:27:42.316Z,12.45
2022-10-05T05:28:50.691Z,12.00
2022-10-05T05:30:03.020Z,13.65
2022-10-05T05:31:13.990Z,9.75
2022-10-05T05:32:23.369Z,12.90
2022-10-05T05:33:32.833Z,10.50
2022-10-05T05:34:49.693Z,15.60
2022-10-05T05:36:10.720Z,11.68
2022-10-05T05:37:23.533Z,22.88
2022-10-05T05:38:32.551Z,14.02
2022-10-05T05:39:42.815Z,14.82
2022-10-05T05:40:52.426Z,15.25
2022-10-05T05:42:12.721Z,16.02
2022-10-05T05:43:24.558Z,17.10
2022-10-05T05:44:29.187Z,20.65
2022-10-05T05:45:38.359Z,26.10
2022-10-05T05:48:18.301Z,14.70
2022-10-05T05:49:24.837Z,16.35
2022-10-05T05:50:41.416Z,15.70
2022-10-05T05:51:50.269Z,15.23
2022-10-05T05:52:59.680Z,15.18
2022-10-05T05:54:20.180Z,12.40
2022-10-05T05:55:29.883Z,13.63
2022-10-05T05:56:38.452Z,12.20
2022-10-05T05:57:45.435Z,16.98
2022-10-05T05:58:53.400Z,12.85
2022-10-05T06:00:05.431Z,12.40
2022-10-05T06:01:35.481Z,12.93
2022-10-05T06:02:43.874Z,12.25
2022-10-05T06:03:50.598Z,10.05
2022-10-05T06:04:57.757Z,12.05
2022-10-05T06:06:05.279Z,13.65
2022-10-05T06:07:14.786Z,14.45
2022-10-05T06:08:24.697Z,13.27
2022-10-05T06:09:33.790Z,11.25
2022-10-05T06:10:43.303Z,14.70
2022-10-05T06:11:50.306Z,38.00
2022-10-05T06:13:00.900Z,17.42
2022-10-05T06:14:12.225Z,14.65
2022-10-05T06:15:33.768Z,13.63
2022-10-05T06:16:40.606Z,18.05
2022-10-05T06:17:48.077Z,12.43
2022-10-05T06:18:55.921Z,11.77
2022-10-05T06:20:05.214Z,10.82
2022-10-05T06:21:20.585Z,12.80
2022-10-05T06:22:29.041Z,12.65
2022-10-05T06:23:44.092Z,10.85
2022-10-05T06:24:59.328Z,12.52
2022-10-05T06:26:14.713Z,16.70
2022-10-05T06:27:26.946Z,10.52
2022-10-05T06:28:30.661Z,11.23
2022-10-05T06:29:44.327Z,13.18
2022-10-05T06:30:57.046Z,13.95
2022-10-05T06:32:06.064Z,14.73
2022-10-05T06:33:21.716Z,13.40
2022-10-05T06:34:49.586Z,13.48
2022-10-05T06:36:07.905Z,12.70
2022-10-05T06:37:18.469Z,13.48
2022-10-05T06:38:44.672Z,12.45
2022-10-05T06:40:17.714Z,13.32
2022-10-05T06:41:27.461Z,12.38
2022-10-05T06:42:56.701Z,12.90
2022-10-05T06:44:00.596Z,18.50
2022-10-05T06:45:11.250Z,12.77
2022-10-05T06:46:19.101Z,13.98
2022-10-05T06:47:30.018Z,10.90
2022-10-05T06:48:46.836Z,11.13
2022-10-05T06:49:54.501Z,11.77
2022-10-05T06:51:00.859Z,12.57
2022-10-05T06:52:13.115Z,14.27
2022-10-05T06:53:31.223Z,10.32
2022-10-05T06:54:49.753Z,18.20
2022-10-05T06:55:59.172Z,12.73
2022-10-05T06:57:10.955Z,12.55
2022-10-05T06:58:39.241Z,12.98
2022-10-05T06:59:50.246Z,13.60
2022-10-05T07:00:57.317Z,9.25
2022-10-05T07:02:08.978Z,13.55
2022-10-05T07:03:22.930Z,12.82
2022-10-05T07:04:41.669Z,16.00
2022-10-05T07:05:51.459Z,18.85
2022-10-05T07:07:00.451Z,12.10
2022-10-05T07:08:08.038Z,13.43
2022-10-05T07:09:27.581Z,9.60
2022-10-05T07:10:32.846Z,16.02
2022-10-05T07:11:55.817Z,10.00
2022-10-05T07:13:16.017Z,10.93
2022-10-05T07:14:28.029Z,12.50
2022-10-05T07:15:41.313Z,10.00
2022-10-05T07:16:56.070Z,11.25
2022-10-05T07:18:13.390Z,13.05
2022-10-05T07:19:29.493Z,11.27
2022-10-05T07:20:40.113Z,10.65
2022-10-05T07:21:47.903Z,17.65
2022-10-05T07:23:13.072Z,10.30
2022-10-05T07:24:30.143Z,14.55
2022-10-05T07:25:36.866Z,11.40
2022-10-05T07:26:46.452Z,15.10
2022-10-05T07:27:55.663Z,15.43
2022-10-05T07:29:23.658Z,12.65
2022-10-05T07:30:26.335Z,11.05
2022-10-05T07:31:33.370Z,12.80
2022-10-05T07:32:40.569Z,14.52
2022-10-05T07:33:48.100Z,12.55
2022-10-05T07:35:03.865Z,14.68
2022-10-05T07:36:32.237Z,16.60
2022-10-05T07:37:54.201Z,14.35
2022-10-05T07:39:05.073Z,15.18
2022-10-05T07:40:16.239Z,12.27
2022-10-05T07:41:23.861Z,9.65
2022-10-05T07:42:48.967Z,12.90
2022-10-05T07:44:02.785Z,10.13
2022-10-05T07:45:14.805Z,14.30
2022-10-05T07:46:24.717Z,15.02
2022-10-05T07:47:34.651Z,13.00
2022-10-05T07:48:51.188Z,11.07
2022-10-05T07:50:03.964Z,10.48
2022-10-05T07:51:13.075Z,19.63
2022-10-05T07:52:19.189Z,17.90
2022-10-05T07:53:25.998Z,10.50
2022-10-05T07:54:35.730Z,9.93
2022-10-05T07:55:44.620Z,11.70
2022-10-05T07:56:51.968Z,11.23
2022-10-05T07:58:05.850Z,10.75
2022-10-05T07:59:15.891Z,8.15
2022-10-05T08:00:20.732Z,9.40
2022-10-05T08:01:27.780Z,12.65
2022-10-05T08:03:56.978Z,12.00
2022-10-05T08:05:04.049Z,11.70
2022-10-05T08:06:11.294Z,8.82
2022-10-05T08:07:17.601Z,13.30
2022-10-05T08:08:28.023Z,8.95
2022-10-05T08:09:39.893Z,9.85
2022-10-05T08:10:49.773Z,9.77
2022-10-05T08:11:58.295Z,7.53
2022-10-05T08:13:11.737Z,7.35
2022-10-05T08:14:20.586Z,7.57
2022-10-05T08:15:27.270Z,8.32
2022-10-05T08:16:37.849Z,10.05
2022-10-05T08:17:48.576Z,7.15
2022-10-05T08:18:56.940Z,6.95
2022-10-05T08:20:10.972Z,7.45
2022-10-05T08:21:17.096Z,8.25
2022-10-05T08:22:25.795Z,9.13
2022-10-05T08:23:35.878Z,9.13
2022-10-05T08:24:44.568Z,5.95
2022-10-05T08:25:58.126Z,14.07
2022-10-05T08:27:06.040Z,8.45
2022-10-05T08:28:12.899Z,9.00
2022-10-05T08:29:22.786Z,7.25
2022-10-05T08:30:25.009Z,7.85
2022-10-05T08:31:33.386Z,8.75
2022-10-05T08:32:41.069Z,8.73
2022-10-05T08:33:56.196Z,7.57
2022-10-05T08:35:04.397Z,10.32
2022-10-05T08:36:11.581Z,7.70
2022-10-05T08:37:21.752Z,7.88
2022-10-05T08:38:31.266Z,11.27
2022-10-05T08:39:40.013Z,8.30
2022-10-05T08:41:09.374Z,8.77
2022-10-05T08:42:41.836Z,11.73
2022-10-05T08:44:04.532Z,6.93
2022-10-05T08:45:22.408Z,9.05
2022-10-05T08:46:40.936Z,8.15
2022-10-05T08:48:07.315Z,15.68
2022-10-05T08:49:35.356Z,10.13
2022-10-05T08:51:08.605Z,6.93
2022-10-05T08:52:30.172Z,6.20
2022-10-05T08:53:50.953Z,5.13
2022-10-05T08:55:37.886Z,9.38
2022-10-05T08:56:45.233Z,8.10
2022-10-05T08:58:17.327Z,8.93
2022-10-05T08:59:58.656Z,4.80
2022-10-05T09:01:10.174Z,14.52
2022-10-05T09:02:24.994Z,14.93
2022-10-05T09:03:49.167Z,6.80
2022-10-05T09:05:14.281Z,8.38
2022-10-05T09:06:26.564Z,5.75
2022-10-05T09:08:00.501Z,5.53
2022-10-05T09:09:29.153Z,15.88
2022-10-05T09:11:02.410Z,9.07
2022-10-05T09:12:46.828Z,8.95
2022-10-05T09:14:06.081Z,5.90
2022-10-05T09:15:31.330Z,6.70
2022-10-05T09:16:48.939Z,7.82
2022-10-05T09:18:30.547Z,7.17
2022-10-05T09:19:53.931Z,9.95
2022-10-05T09:21:02.752Z,7.85
2022-10-05T09:22:15.907Z,10.45
2022-10-05T09:23:34.437Z,7.32
2022-10-05T09:24:53.862Z,6.95
2022-10-05T09:26:00.422Z,7.15
2022-10-05T09:27:10.162Z,6.20
2022-10-05T09:28:23.024Z,7.00
2022-10-05T09:29:52.824Z,5.93
2022-10-05T09:31:34.378Z,15.82
2022-10-05T09:33:25.573Z,7.55
2022-10-05T09:34:57.087Z,6.28
2022-10-05T09:36:27.944Z,5.63
2022-10-05T09:37:49.378Z,6.60
2022-10-05T09:39:18.604Z,7.28
2022-10-05T09:40:47.738Z,12.27
2022-10-05T09:42:02.089Z,6.80
2022-10-05T09:43:21.305Z,5.43
2022-10-05T09:44:43.243Z,6.55
2022-10-05T09:46:08.803Z,7.70
2022-10-05T09:47:41.411Z,10.82
2022-10-05T09:49:17.352Z,6.05
2022-10-05T09:50:50.783Z,16.80
2022-10-05T09:52:07.740Z,5.85
2022-10-05T09:53:29.890Z,6.13
2022-10-05T09:55:05.438Z,7.27
2022-10-05T09:56:23.510Z,4.85
2022-10-05T09:58:00.881Z,6.30
2022-10-05T09:59:37.875Z,5.23
2022-10-05T10:01:03.799Z,4.20
2022-10-05T10:02:43.314Z,12.43
2022-10-05T10:04:13.492Z,11.87
2022-10-05T10:05:47.039Z,4.47
2022-10-05T10:07:27.499Z,28.93
2022-10-05T10:08:43.917Z,7.35
2022-10-05T10:10:08.743Z,6.13
2022-10-05T10:11:45.340Z,7.15
2022-10-05T10:13:09.575Z,4.15
2022-10-05T10:14:38.186Z,6.68
2022-10-05T10:16:09.225Z,6.27
2022-10-05T10:17:48.291Z,10.88
2022-10-05T10:19:20.794Z,5.90
2022-10-05T10:20:41.072Z,4.00
2022-10-05T10:22:22.490Z,6.23
2022-10-05T10:23:38.878Z,4.38
2022-10-05T10:25:19.138Z,16.05
2022-10-05T10:27:07.512Z,3.97
2022-10-05T10:28:49.388Z,8.00
2022-10-05T10:30:18.865Z,5.80
2022-10-05T10:31:46.032Z,5.60
2022-10-05T10:33:17.824Z,6.00
2022-10-05T10:34:52.133Z,4.50
2022-10-05T10:36:07.103Z,6.47
2022-10-05T10:37:39.695Z,5.40
2022-10-05T10:38:59.464Z,13.30
2022-10-05T10:40:26.008Z,6.50
2022-10-05T10:41:52.393Z,4.47
2022-10-05T10:43:30.286Z,4.60
2022-10-05T10:45:07.902Z,9.40
2022-10-05T10:46:26.470Z,6.70
2022-10-05T10:47:40.668Z,5.27
2022-10-05T10:48:58.334Z,3.53
2022-10-05T10:50:27.205Z,4.43
2022-10-05T10:52:04.887Z,3.75
2022-10-05T10:53:23.670Z,5.30
2022-10-05T10:54:52.706Z,5.93
2022-10-05T10:56:16.463Z,3.97
2022-10-05T10:57:32.023Z,3.50
2022-10-05T10:59:05.368Z,4.90
2022-10-05T11:00:40.376Z,4.70
2022-10-05T11:02:02.902Z,7.13
2022-10-05T11:03:46.806Z,7.10
2022-10-05T11:05:04.216Z,3.03
2022-10-05T11:06:21.693Z,12.50
2022-10-05T11:07:51.333Z,4.03
2022-10-05T11:09:11.203Z,4.90
2022-10-05T11:10:47.038Z,10.13
2022-10-05T11:12:22.767Z,7.93
2022-10-05T11:14:02.732Z,3.57
2022-10-05T11:15:23.862Z,3.70
2022-10-05T11:16:51.653Z,3.67
2022-10-05T11:18:18.006Z,6.57
2022-10-05T11:20:03.188Z,6.70
2022-10-05T11:21:25.535Z,2.00
2022-10-05T11:23:07.093Z,2.47
2022-10-05T11:24:32.568Z,2.90
2022-10-05T11:25:50.472Z,3.23
2022-10-05T11:27:09.725Z,4.53
2022-10-05T11:28:39.381Z,5.77
2022-10-05T11:30:05.031Z,4.83
2022-10-05T11:31:54.078Z,3.90
2022-10-05T11:33:35.226Z,3.47
2022-10-05T11:35:04.907Z,5.13
2022-10-05T11:36:31.158Z,2.97
2022-10-05T11:37:51.099Z,7.23
2022-10-05T11:39:25.280Z,4.33
2022-10-05T11:40:44.787Z,2.90
2022-10-05T11:42:16.884Z,3.93
2022-10-05T11:43:53.928Z,3.70
2022-10-05T11:45:22.626Z,3.53
2022-10-05T11:46:29.884Z,2.83
2022-10-05T11:47:37.023Z,4.83
2022-10-05T11:48:55.442Z,7.20
2022-10-05T11:50:11.427Z,3.70
2022-10-05T11:51:29.566Z,3.57
2022-10-05T11:52:36.799Z,3.17
2022-10-05T11:53:43.343Z,5.50
2022-10-05T11:55:15.872Z,3.07
2022-10-05T11:56:27.216Z,2.43
2022-10-05T11:57:37.633Z,5.70
2022-10-05T11:58:45.794Z,8.80
2022-10-05T11:59:53.626Z,3.83
2022-10-05T12:01:01.797Z,4.23
2022-10-05T12:02:39.996Z,6.30
2022-10-05T12:03:58.054Z,4.93
2022-10-05T12:05:10.683Z,3.20
2022-10-05T12:06:27.316Z,5.10
2022-10-05T12:07:40.150Z,2.80
2022-10-05T12:08:53.138Z,3.93
2022-10-05T12:10:17.460Z,5.20
2022-10-05T12:11:37.797Z,16.37
2022-10-05T12:12:48.297Z,5.50
2022-10-05T12:13:58.736Z,6.70
2022-10-05T12:15:08.541Z,3.50
2022-10-05T12:16:19.285Z,3.43
2022-10-05T12:17:27.961Z,5.80
2022-10-05T12:18:56.626Z,3.17
2022-10-05T12:20:04.058Z,2.90
2022-10-05T12:21:14.740Z,6.27
2022-10-05T12:22:22.513Z,5.20
2022-10-05T12:23:33.481Z,3.30
2022-10-05T12:25:01.500Z,4.33
2022-10-05T12:26:07.813Z,6.40
2022-10-05T12:27:16.959Z,4.87
2022-10-05T12:28:28.590Z,5.80
2022-10-05T12:29:41.476Z,3.37
2022-10-05T12:31:11.693Z,2.97
2022-10-05T12:32:20.121Z,4.60
2022-10-05T12:33:28.332Z,5.77
2022-10-05T12:34:47.637Z,5.20
2022-10-05T12:35:56.890Z,6.90
2022-10-05T12:37:05.940Z,7.57
2022-10-05T12:38:17.596Z,7.87
2022-10-05T12:39:27.881Z,3.90
2022-10-05T12:40:40.431Z,6.13
2022-10-05T12:41:50.419Z,6.47
2022-10-05T12:43:01.224Z,3.10
2022-10-05T12:44:17.243Z,3.53
2022-10-05T12:45:27.359Z,4.73
2022-10-05T12:46:39.551Z,3.63
2022-10-05T12:48:02.065Z,4.03
2022-10-05T12:49:38.773Z,2.77
2022-10-05T12:50:42.655Z,2.50
2022-10-05T12:51:56.731Z,3.57
2022-10-05T12:53:23.201Z,3.87
2022-10-05T12:54:37.927Z,3.00
2022-10-05T12:55:47.189Z,3.03
2022-10-05T12:56:55.395Z,2.77
2022-10-05T12:58:06.504Z,2.20
2022-10-05T12:59:20.290Z,3.60
2022-10-05T13:00:23.453Z,3.53
2022-10-05T13:01:36.235Z,3.40
2022-10-05T13:02:43.587Z,2.43
2022-10-05T13:03:52.494Z,6.30
2022-10-05T13:05:05.252Z,3.80
2022-10-05T13:06:17.432Z,3.47
2022-10-05T13:07:33.375Z,2.30
2022-10-05T13:08:45.892Z,9.70
2022-10-05T13:09:55.867Z,4.43
2022-10-05T13:11:04.833Z,5.43
2022-10-05T13:12:19.010Z,2.87
2022-10-05T13:13:34.286Z,3.20
2022-10-05T13:14:51.629Z,7.97
2022-10-05T13:16:01.219Z,2.53
2022-10-05T13:17:11.111Z,2.10
2022-10-05T13:18:20.553Z,4.93
2022-10-05T13:19:35.269Z,2.93
2022-10-05T13:20:45.786Z,3.40
2022-10-05T13:22:05.172Z,4.43
2022-10-05T13:23:18.269Z,4.30
2022-10-05T13:24:23.884Z,3.10
2022-10-05T13:25:32.547Z,3.13
2022-10-05T13:26:38.795Z,12.30
2022-10-05T13:27:44.885Z,3.50
2022-10-05T13:28:55.531Z,1.90
2022-10-05T13:30:03.884Z,2.63
2022-10-05T13:31:13.354Z,2.27
2022-10-05T13:32:19.851Z,2.20
2022-10-05T13:33:32.719Z,2.67
2022-10-05T13:34:40.146Z,3.70
2022-10-05T13:35:48.291Z,2.50
2022-10-05T13:37:03.853Z,3.90
2022-10-05T13:38:17.582Z,2.50
2022-10-05T13:39:36.396Z,4.37
2022-10-05T13:40:44.842Z,3.30
2022-10-05T13:41:55.440Z,7.67
2022-10-05T13:43:03.888Z,3.30
2022-10-05T13:44:18.458Z,5.10
2022-10-05T13:45:23.625Z,8.10
2022-10-05T13:46:33.142Z,2.00
2022-10-05T13:47:41.984Z,3.90
2022-10-05T13:49:01.136Z,6.63
2022-10-05T13:50:14.860Z,2.40
2022-10-05T13:51:21.981Z,3.30
2022-10-05T13:52:34.657Z,4.03
2022-10-05T13:53:46.220Z,4.93
2022-10-05T13:54:55.755Z,3.20
2022-10-05T13:56:00.994Z,5.40
2022-10-05T13:57:17.074Z,7.10
2022-10-05T13:58:29.267Z,2.33
2022-10-05T13:59:37.957Z,3.67
2022-10-05T14:00:49.366Z,6.63
2022-10-05T14:01:58.257Z,5.07
2022-10-05T14:03:01.854Z,5.60
2022-10-05T14:04:16.979Z,6.10
2022-10-05T14:05:21.061Z,3.03
2022-10-05T14:06:30.181Z,5.33
2022-10-05T14:07:34.986Z,7.30
2022-10-05T14:08:49.913Z,5.13
2022-10-05T14:09:51.969Z,4.93
2022-10-05T14:10:56.001Z,4.77
2022-10-05T14:12:15.335Z,4.20
2022-10-05T14:13:21.000Z,3.43
2022-10-05T14:14:28.121Z,6.67
2022-10-05T14:15:37.368Z,2.80
2022-10-05T14:16:51.479Z,2.60
2022-10-05T14:17:54.081Z,2.23
2022-10-05T14:19:09.906Z,7.70
2022-10-05T14:20:22.661Z,2.00
2022-10-05T14:21:27.574Z,2.20
2022-10-05T14:22:30.298Z,2.50
2022-10-05T14:23:33.620Z,8.73
2022-10-05T14:24:47.006Z,2.50
2022-10-05T14:25:53.847Z,2.77
2022-10-05T14:26:57.587Z,2.70
2022-10-05T14:28:03.270Z,3.13
2022-10-05T14:29:18.434Z,2.60
2022-10-05T14:30:23.615Z,2.63
2022-10-05T14:31:33.858Z,2.23
2022-10-05T14:32:51.748Z,9.93
2022-10-05T14:33:54.428Z,4.30
2022-10-05T14:35:05.087Z,2.27
2022-10-05T14:36:16.105Z,3.77
2022-10-05T14:37:19.298Z,3.70
2022-10-05T14:38:25.599Z,5.10
2022-10-05T14:39:28.836Z,4.67
2022-10-05T14:40:34.536Z,4.23
2022-10-05T14:41:37.543Z,2.97
2022-10-05T14:42:47.196Z,4.40
2022-10-05T14:43:52.205Z,4.03
2022-10-05T14:44:59.392Z,3.47
2022-10-05T14:46:05.519Z,3.73
2022-10-05T14:47:20.989Z,3.30
2022-10-05T14:48:25.321Z,5.37
2022-10-05T14:49:28.115Z,2.03
2022-10-05T14:50:32.606Z,4.70
2022-10-05T14:51:36.256Z,3.60
2022-10-05T14:52:41.023Z,3.00
2022-10-05T14:53:47.111Z,3.30
2022-10-05T14:55:02.091Z,1.90
2022-10-05T14:56:26.711Z,3.87
2022-10-05T14:57:40.595Z,3.20
2022-10-05T14:59:24.310Z,3.60
2022-10-05T15:00:27.391Z,5.57
2022-10-05T15:01:31.473Z,4.03
2022-10-05T15:02:47.940Z,1.90
2022-10-05T15:04:00.283Z,2.70
2022-10-05T15:05:15.154Z,2.40
2022-10-05T15:06:26.866Z,5.23
2022-10-05T15:07:36.028Z,4.90
2022-10-05T15:08:54.130Z,3.90
2022-10-05T15:10:19.866Z,4.83
2022-10-05T15:11:34.350Z,3.90
2022-10-05T15:12:42.726Z,3.20
2022-10-05T15:13:47.448Z,6.90
2022-10-05T15:14:51.425Z,3.40
2022-10-05T15:15:57.455Z,2.87
2022-10-05T15:17:03.300Z,3.80
2022-10-05T15:18:14.986Z,4.57
2022-10-05T15:19:20.833Z,4.23
2022-10-05T15:20:29.541Z,4.00
2022-10-05T15:21:46.154Z,2.00
2022-10-05T15:22:54.678Z,6.30
2022-10-05T15:24:00.945Z,5.87
2022-10-05T15:25:14.722Z,4.23
2022-10-05T15:26:36.121Z,7.57
2022-10-05T15:27:53.785Z,3.90
2022-10-05T15:29:01.748Z,6.70
2022-10-05T15:30:10.749Z,11.13
2022-10-05T15:31:23.532Z,3.63
2022-10-05T15:32:42.413Z,4.00
2022-10-05T15:33:53.772Z,5.20
2022-10-05T15:35:21.946Z,6.97
2022-10-05T15:36:26.757Z,4.10
2022-10-05T15:37:35.757Z,2.10
2022-10-05T15:38:52.018Z,3.87
2022-10-05T15:39:56.934Z,6.37
2022-10-05T15:41:09.245Z,4.20
2022-10-05T15:42:16.087Z,5.47
2022-10-05T15:43:22.064Z,6.50
2022-10-05T15:44:38.141Z,3.20
2022-10-05T15:45:43.826Z,8.10
2022-10-05T15:46:56.330Z,6.33
2022-10-05T15:48:03.238Z,5.73
2022-10-05T15:49:25.400Z,2.37
2022-10-05T15:50:32.279Z,3.73
2022-10-05T15:51:49.978Z,3.80
2022-10-05T15:53:02.384Z,3.30
2022-10-05T15:54:29.787Z,6.00
2022-10-05T15:55:41.992Z,4.90
2022-10-05T15:56:51.348Z,3.00
2022-10-05T15:58:08.732Z,3.80
2022-10-05T15:59:24.407Z,2.33
2022-10-05T16:00:27.328Z,5.03
2022-10-05T16:01:44.861Z,4.43
2022-10-05T16:02:51.958Z,2.40
2022-10-05T16:04:03.740Z,2.77
2022-10-05T16:05:19.895Z,2.47
2022-10-05T16:06:51.866Z,6.80
2022-10-05T16:08:12.702Z,10.93
2022-10-05T16:09:30.685Z,10.70
2022-10-05T16:10:36.397Z,3.07